Delta Virtual Airport Information Service

Beijing Capital International Airport

ICAO: ZBAA Country: China
Latitude: 40.0801 Longitude: 116.585
Latest Arrival : DAL6649961 (EGKK-ZBAA) Latest Departure : DAL6649962 (ZBAA-PANC)


WX CaptureLIVE
Data provided by noaa.gov | Fetched at 17:15:42

METAR : ZBAA 242200Z VRB01MPS CAVOK 18/08 Q1011 NOSIG

TAF : ZBAA 241501Z 2418/2518 35004MPS CAVOK TX24/2507Z TN15/2421Z


Runway Data for ZBAA
Data provided by openaviationdata.com

Runway ID Mag Var Hdg Length Elevation Surface ILS Freq ILS Id ILS Slope
18L -6 179° 12478 ft 115 ft Asphalt 109.3 IOR 3
18R -6 179° 10507 ft 115 ft Asphalt 110.3 ILG 3
36L -6 359° 10507 ft 115 ft Asphalt 111.7 IDK 3
36R -6 359° 12478 ft 115 ft Asphalt 109.9 IQU 3

Beijing Capital International Airport, China
Use only for reference purposes



Not for navigational purposes.